createdAt,value
2022-09-21T00:01:29.099Z,101920.00
2022-09-21T00:04:02.368Z,101931.00
2022-09-21T00:06:33.525Z,101924.00
2022-09-21T00:09:00.469Z,101924.00
2022-09-21T00:11:30.861Z,101927.00
2022-09-21T00:14:02.808Z,101929.00
2022-09-21T00:16:30.185Z,101937.00
2022-09-21T00:18:57.149Z,101936.00
2022-09-21T00:21:24.427Z,101942.00
2022-09-21T00:23:51.205Z,101936.00
2022-09-21T00:26:22.018Z,101943.00
2022-09-21T00:28:54.903Z,101933.00
2022-09-21T00:31:22.934Z,101931.00
2022-09-21T00:33:51.116Z,101941.00
2022-09-21T00:36:21.666Z,101939.00
2022-09-21T00:38:55.182Z,101938.00
2022-09-21T00:41:22.746Z,101935.00
2022-09-21T00:44:18.515Z,101946.00
2022-09-21T00:46:49.187Z,101942.00
2022-09-21T00:49:17.558Z,101943.00
2022-09-21T00:51:46.392Z,101948.00
2022-09-21T00:54:26.148Z,101944.00
2022-09-21T00:56:55.548Z,101950.00
2022-09-21T00:59:26.789Z,101942.00
2022-09-21T01:01:56.471Z,101942.00
2022-09-21T01:04:23.326Z,101943.00
2022-09-21T01:06:50.693Z,101943.00
2022-09-21T01:09:19.013Z,101939.00
2022-09-21T01:12:09.964Z,101950.00
2022-09-21T01:15:14.603Z,101947.00
2022-09-21T01:18:04.962Z,101955.00
2022-09-21T01:21:17.025Z,101958.00
2022-09-21T01:24:08.893Z,101955.00
2022-09-21T01:26:57.733Z,101954.00
2022-09-21T01:29:48.603Z,101955.00
2022-09-21T01:32:27.993Z,101953.00
2022-09-21T01:35:27.025Z,101948.00
2022-09-21T01:37:58.429Z,101961.00
2022-09-21T01:40:43.880Z,101946.00
2022-09-21T01:43:19.017Z,101961.00
2022-09-21T01:45:51.997Z,101959.00
2022-09-21T01:48:23.711Z,101956.00
2022-09-21T01:50:56.216Z,101963.00
2022-09-21T01:53:45.923Z,101965.00
2022-09-21T01:56:37.623Z,101960.00
2022-09-21T01:59:15.926Z,101965.00
2022-09-21T02:01:53.659Z,101963.00
2022-09-21T02:04:20.698Z,101965.00
2022-09-21T02:06:49.580Z,101963.00
2022-09-21T02:09:18.082Z,101963.00
2022-09-21T02:11:45.296Z,101967.00
2022-09-21T02:14:24.071Z,101960.00
2022-09-21T02:17:35.568Z,101956.00
2022-09-21T02:20:23.681Z,101963.00
2022-09-21T02:23:10.166Z,101962.00
2022-09-21T02:26:02.394Z,101969.00
2022-09-21T02:28:47.226Z,101964.00
2022-09-21T02:31:36.170Z,101970.00
2022-09-21T02:34:18.970Z,101958.00
2022-09-21T02:36:56.978Z,101964.00
2022-09-21T02:39:50.240Z,101970.00
2022-09-21T02:42:28.125Z,101963.00
2022-09-21T02:45:05.060Z,101967.00
2022-09-21T02:47:53.606Z,101967.00
2022-09-21T02:50:29.740Z,101975.00
2022-09-21T02:52:57.916Z,101964.00
2022-09-21T02:55:26.409Z,101970.00
2022-09-21T02:57:55.520Z,101974.00
2022-09-21T03:00:22.331Z,101973.00
2022-09-21T03:02:49.252Z,101978.00
2022-09-21T03:05:16.019Z,101984.00
2022-09-21T03:07:42.721Z,101986.00
2022-09-21T03:10:10.058Z,101984.00
2022-09-21T03:12:37.175Z,101986.00
2022-09-21T03:15:05.020Z,101985.00
2022-09-21T03:17:31.882Z,101992.00
2022-09-21T03:19:59.413Z,101992.00
2022-09-21T03:22:26.119Z,101997.00
2022-09-21T03:24:57.393Z,102000.00
2022-09-21T03:27:24.284Z,101995.00
2022-09-21T03:29:50.972Z,101994.00
2022-09-21T03:32:17.673Z,101992.00
2022-09-21T03:34:44.393Z,101985.00
2022-09-21T03:37:11.545Z,102001.00
2022-09-21T03:39:38.285Z,101996.00
2022-09-21T03:42:05.189Z,101995.00
2022-09-21T03:44:32.128Z,101995.00
2022-09-21T03:46:58.885Z,101993.00
2022-09-21T03:49:26.238Z,101992.00
2022-09-21T03:51:52.989Z,102004.00
2022-09-21T03:54:19.841Z,101999.00
2022-09-21T03:56:46.632Z,101995.00
2022-09-21T03:59:14.398Z,101991.00
2022-09-21T04:01:42.258Z,102014.00
2022-09-21T04:04:09.223Z,102004.00
2022-09-21T04:06:36.656Z,102005.00
2022-09-21T04:09:03.611Z,102004.00
2022-09-21T04:11:32.426Z,102006.00
2022-09-21T04:13:59.248Z,102010.00
2022-09-21T04:16:27.110Z,102013.00
2022-09-21T04:18:54.077Z,102010.00
2022-09-21T04:21:22.282Z,102011.00
2022-09-21T04:23:49.974Z,102012.00
2022-09-21T04:26:29.119Z,102011.00
2022-09-21T04:28:57.164Z,102015.00
2022-09-21T04:31:26.276Z,102011.00
2022-09-21T04:33:56.105Z,102013.00
2022-09-21T04:36:25.233Z,102011.00
2022-09-21T04:38:52.332Z,102004.00
2022-09-21T04:41:19.156Z,102010.00
2022-09-21T04:43:48.188Z,101996.00
2022-09-21T04:46:18.481Z,102005.00
2022-09-21T04:48:45.676Z,102005.00
2022-09-21T04:51:14.096Z,102011.00
2022-09-21T04:53:43.055Z,102013.00
2022-09-21T04:56:14.391Z,102019.00
2022-09-21T04:58:41.340Z,102013.00
2022-09-21T05:01:08.113Z,102015.00
2022-09-21T05:03:35.514Z,102024.00
2022-09-21T05:06:02.544Z,102021.00
2022-09-21T05:08:48.159Z,102021.00
2022-09-21T05:11:20.886Z,102025.00
2022-09-21T05:13:48.322Z,102039.00
2022-09-21T05:16:16.641Z,102033.00
2022-09-21T05:18:44.426Z,102028.00
2022-09-21T05:21:15.357Z,102038.00
2022-09-21T05:23:42.279Z,102042.00
2022-09-21T05:26:08.987Z,102047.00
2022-09-21T05:28:39.843Z,102040.00
2022-09-21T05:31:45.935Z,102049.00
2022-09-21T05:34:44.696Z,102055.00
2022-09-21T05:37:54.874Z,102059.00
2022-09-21T05:40:22.216Z,102063.00
2022-09-21T05:42:49.459Z,102054.00
2022-09-21T05:45:18.558Z,102057.00
2022-09-21T05:48:06.707Z,102052.00
2022-09-21T05:50:55.936Z,102058.00
2022-09-21T05:53:40.769Z,102054.00
2022-09-21T05:56:48.721Z,102051.00
2022-09-21T05:59:46.674Z,102060.00
2022-09-21T06:02:46.896Z,102060.00
2022-09-21T06:05:15.480Z,102063.00
2022-09-21T06:07:43.193Z,102054.00
2022-09-21T06:10:13.228Z,102054.00
2022-09-21T06:12:40.864Z,102057.00
2022-09-21T06:15:12.336Z,102057.00
2022-09-21T06:17:39.318Z,102066.00
2022-09-21T06:20:07.681Z,102065.00
2022-09-21T06:22:35.145Z,102063.00
2022-09-21T06:25:02.099Z,102066.00
2022-09-21T06:27:29.303Z,102065.00
2022-09-21T06:29:56.228Z,102073.00
2022-09-21T06:32:22.936Z,102066.00
2022-09-21T06:34:50.029Z,102071.00
2022-09-21T06:37:17.067Z,102081.00
2022-09-21T06:39:43.975Z,102083.00
2022-09-21T06:42:10.713Z,102083.00
2022-09-21T06:44:37.640Z,102089.00
2022-09-21T06:47:04.643Z,102096.00
2022-09-21T06:49:31.900Z,102088.00
2022-09-21T06:51:58.619Z,102089.00
2022-09-21T06:54:26.065Z,102091.00
2022-09-21T06:56:55.808Z,102092.00
2022-09-21T06:59:26.068Z,102089.00
2022-09-21T07:01:55.724Z,102088.00
2022-09-21T07:04:25.367Z,102088.00
2022-09-21T07:06:52.472Z,102096.00
2022-09-21T07:12:08.021Z,102098.00
2022-09-21T07:14:34.807Z,102111.00
2022-09-21T07:17:02.311Z,102094.00
2022-09-21T07:19:29.092Z,102109.00
2022-09-21T07:21:56.100Z,102098.00
2022-09-21T07:24:23.034Z,102103.00
2022-09-21T07:26:49.751Z,102113.00
2022-09-21T07:29:16.564Z,102109.00
2022-09-21T07:31:48.451Z,102104.00
2022-09-21T07:34:15.610Z,102109.00
2022-09-21T07:36:42.801Z,102116.00
2022-09-21T07:39:10.567Z,102111.00
2022-09-21T07:41:37.540Z,102114.00
2022-09-21T07:44:05.278Z,102109.00
2022-09-21T07:46:32.347Z,102104.00
2022-09-21T07:48:59.048Z,102117.00
2022-09-21T07:51:25.823Z,102113.00
2022-09-21T07:53:56.789Z,102117.00
2022-09-21T07:56:23.922Z,102105.00
2022-09-21T07:59:05.975Z,102113.00
2022-09-21T08:01:41.901Z,102129.00
2022-09-21T08:04:10.909Z,102128.00
2022-09-21T08:06:40.033Z,102117.00
2022-09-21T08:09:08.527Z,102112.00
2022-09-21T08:11:37.388Z,102116.00
2022-09-21T08:14:04.789Z,102115.00
2022-09-21T08:16:32.221Z,102113.00
2022-09-21T08:18:59.740Z,102121.00
2022-09-21T08:21:26.603Z,102119.00
2022-09-21T08:23:54.048Z,102125.00
2022-09-21T08:26:21.300Z,102118.00
2022-09-21T08:28:52.000Z,102122.00
2022-09-21T08:31:22.110Z,102120.00
2022-09-21T08:33:50.254Z,102131.00
2022-09-21T08:36:18.514Z,102129.00
2022-09-21T08:38:46.647Z,102137.00
2022-09-21T08:41:40.643Z,102144.00
2022-09-21T08:44:35.832Z,102135.00
2022-09-21T08:47:12.658Z,102132.00
2022-09-21T08:49:45.546Z,102128.00
2022-09-21T08:52:17.263Z,102141.00
2022-09-21T08:55:00.009Z,102138.00
2022-09-21T08:57:31.278Z,102139.00
2022-09-21T09:00:01.336Z,102131.00
2022-09-21T09:02:56.102Z,102137.00
2022-09-21T09:05:45.509Z,102142.00
2022-09-21T09:08:47.132Z,102140.00
2022-09-21T09:11:28.968Z,102144.00
2022-09-21T09:14:09.911Z,102147.00
2022-09-21T09:17:22.921Z,102150.00
2022-09-21T09:20:05.061Z,102148.00
2022-09-21T09:22:42.810Z,102142.00
2022-09-21T09:25:21.741Z,102142.00
2022-09-21T09:27:55.666Z,102143.00
2022-09-21T09:30:26.610Z,102148.00
2022-09-21T09:33:20.730Z,102148.00
2022-09-21T09:36:03.468Z,102152.00
2022-09-21T09:39:12.929Z,102147.00
2022-09-21T09:42:22.890Z,102147.00
2022-09-21T09:45:11.815Z,102142.00
2022-09-21T09:48:05.980Z,102156.00
2022-09-21T09:50:38.558Z,102144.00
2022-09-21T09:53:17.286Z,102155.00
2022-09-21T09:55:49.485Z,102150.00
2022-09-21T09:58:34.352Z,102150.00
2022-09-21T10:01:01.255Z,102148.00
2022-09-21T10:03:28.788Z,102148.00
2022-09-21T10:05:55.633Z,102144.00
2022-09-21T10:08:42.572Z,102149.00
2022-09-21T10:11:15.027Z,102145.00
2022-09-21T10:13:46.536Z,102146.00
2022-09-21T10:16:20.497Z,102146.00
2022-09-21T10:19:01.594Z,102142.00
2022-09-21T10:21:36.990Z,102145.00
2022-09-21T10:24:14.924Z,102153.00
2022-09-21T10:26:48.342Z,102136.00
2022-09-21T10:29:23.893Z,102141.00
2022-09-21T10:32:03.051Z,102131.00
2022-09-21T10:34:35.178Z,102132.00
2022-09-21T10:37:26.454Z,102134.00
2022-09-21T10:39:53.219Z,102140.00
2022-09-21T10:42:21.121Z,102121.00
2022-09-21T10:45:03.934Z,102119.00
2022-09-21T10:47:40.633Z,102120.00
2022-09-21T10:50:30.298Z,102125.00
2022-09-21T10:53:26.125Z,102116.00
2022-09-21T10:56:19.074Z,102121.00
2022-09-21T10:59:26.787Z,102108.00
2022-09-21T11:01:58.328Z,102109.00
2022-09-21T11:04:45.460Z,102108.00
2022-09-21T11:07:32.316Z,102115.00
2022-09-21T11:10:35.714Z,102100.00
2022-09-21T11:13:36.779Z,102106.00
2022-09-21T11:16:26.494Z,102095.00
2022-09-21T11:19:30.553Z,102098.00
2022-09-21T11:22:36.156Z,102096.00
2022-09-21T11:25:32.550Z,102106.00
2022-09-21T11:28:37.827Z,102096.00
2022-09-21T11:31:36.937Z,102093.00
2022-09-21T11:34:37.704Z,102095.00
2022-09-21T11:38:00.250Z,102101.00
2022-09-21T11:41:31.129Z,102106.00
2022-09-21T11:44:17.189Z,102104.00
2022-09-21T11:47:25.658Z,102097.00
2022-09-21T11:50:26.391Z,102101.00
2022-09-21T11:53:11.189Z,102097.00
2022-09-21T11:56:07.910Z,102104.00
2022-09-21T11:59:06.989Z,102091.00
2022-09-21T12:01:36.834Z,102094.00
2022-09-21T12:04:46.958Z,102087.00
2022-09-21T12:07:56.145Z,102083.00
2022-09-21T12:11:24.649Z,102078.00
2022-09-21T12:14:04.772Z,102085.00
2022-09-21T12:16:51.910Z,102086.00
2022-09-21T12:20:07.788Z,102082.00
2022-09-21T12:22:41.022Z,102085.00
2022-09-21T12:25:40.890Z,102086.00
2022-09-21T12:28:25.968Z,102085.00
2022-09-21T12:31:01.590Z,102078.00
2022-09-21T12:33:45.283Z,102079.00
2022-09-21T12:36:41.869Z,102077.00
2022-09-21T12:39:32.682Z,102080.00
2022-09-21T12:42:22.096Z,102079.00
2022-09-21T12:45:15.842Z,102079.00
2022-09-21T12:48:12.175Z,102067.00
2022-09-21T12:51:11.333Z,102069.00
2022-09-21T12:53:49.899Z,102062.00
2022-09-21T12:56:42.113Z,102070.00
2022-09-21T12:59:45.188Z,102067.00
2022-09-21T13:02:24.448Z,102051.00
2022-09-21T13:05:02.867Z,102057.00
2022-09-21T13:08:01.205Z,102070.00
2022-09-21T13:10:28.167Z,102055.00
2022-09-21T13:13:02.101Z,102061.00
2022-09-21T13:15:47.061Z,102060.00
2022-09-21T13:18:36.235Z,102064.00
2022-09-21T13:21:20.305Z,102059.00
2022-09-21T13:24:30.686Z,102062.00
2022-09-21T13:27:02.496Z,102051.00
2022-09-21T13:29:34.249Z,102061.00
2022-09-21T13:32:12.477Z,102048.00
2022-09-21T13:34:44.178Z,102057.00
2022-09-21T13:37:20.080Z,102049.00
2022-09-21T13:40:01.880Z,102054.00
2022-09-21T13:42:34.853Z,102053.00
2022-09-21T13:45:26.150Z,102044.00
2022-09-21T13:47:59.594Z,102051.00
2022-09-21T13:50:44.862Z,102052.00
2022-09-21T13:53:27.410Z,102053.00
2022-09-21T13:56:01.121Z,102050.00
2022-09-21T13:58:36.092Z,102062.00
2022-09-21T14:01:29.491Z,102049.00
2022-09-21T14:04:18.020Z,102050.00
2022-09-21T14:06:50.023Z,102045.00
2022-09-21T14:09:57.282Z,102048.00
2022-09-21T14:12:32.635Z,102035.00
2022-09-21T14:15:35.722Z,102033.00
2022-09-21T14:18:37.334Z,102033.00
2022-09-21T14:21:09.507Z,102035.00
2022-09-21T14:23:38.803Z,102029.00
2022-09-21T14:26:35.679Z,102024.00
2022-09-21T14:29:31.098Z,102025.00
2022-09-21T14:32:03.144Z,102013.00
2022-09-21T14:34:36.993Z,102007.00
2022-09-21T14:37:12.540Z,102015.00
2022-09-21T14:39:44.365Z,102012.00
2022-09-21T14:42:19.466Z,102017.00
2022-09-21T14:44:52.558Z,102019.00
2022-09-21T14:48:02.720Z,102008.00
2022-09-21T14:50:51.667Z,102003.00
2022-09-21T14:53:35.482Z,102007.00
2022-09-21T14:56:51.667Z,102005.00
2022-09-21T14:59:52.827Z,102013.00
2022-09-21T15:02:29.378Z,102010.00
2022-09-21T15:05:31.324Z,102001.00
2022-09-21T15:09:03.694Z,102011.00
2022-09-21T15:11:44.829Z,102011.00
2022-09-21T15:14:25.834Z,102007.00
2022-09-21T15:16:52.682Z,102006.00
2022-09-21T15:19:27.190Z,102003.00
2022-09-21T15:22:19.740Z,102000.00
2022-09-21T15:24:59.396Z,101993.00
2022-09-21T15:27:33.650Z,101998.00
2022-09-21T15:30:05.820Z,102000.00
2022-09-21T15:32:46.524Z,101995.00
2022-09-21T15:35:20.217Z,101999.00
2022-09-21T15:37:48.330Z,101997.00
2022-09-21T15:40:50.050Z,102000.00
2022-09-21T15:43:20.999Z,102001.00
2022-09-21T15:45:58.126Z,102003.00
2022-09-21T15:48:33.930Z,101997.00
2022-09-21T15:51:22.551Z,102006.00
2022-09-21T15:54:05.135Z,102012.00
2022-09-21T15:56:40.563Z,102003.00
2022-09-21T15:59:15.944Z,102013.00
2022-09-21T16:01:48.443Z,102007.00
2022-09-21T16:04:22.413Z,102004.00
2022-09-21T16:07:23.894Z,102013.00
2022-09-21T16:09:50.748Z,102010.00
2022-09-21T16:12:43.858Z,102015.00
2022-09-21T16:15:26.175Z,102004.00
2022-09-21T16:18:06.684Z,102007.00
2022-09-21T16:20:48.158Z,102012.00
2022-09-21T16:23:25.490Z,102003.00
2022-09-21T16:26:00.718Z,102021.00
2022-09-21T16:28:42.068Z,102015.00
2022-09-21T16:31:32.117Z,102015.00
2022-09-21T16:34:05.349Z,102011.00
2022-09-21T16:36:37.899Z,102018.00
2022-09-21T16:39:14.958Z,102018.00
2022-09-21T16:41:53.736Z,102015.00
2022-09-21T16:44:26.182Z,102016.00
2022-09-21T16:46:58.197Z,102025.00
2022-09-21T16:49:30.560Z,102021.00
2022-09-21T16:51:59.755Z,102015.00
2022-09-21T16:54:27.917Z,102022.00
2022-09-21T16:56:58.505Z,102017.00
2022-09-21T16:59:27.023Z,102026.00
2022-09-21T17:01:57.679Z,102018.00
2022-09-21T17:04:28.464Z,102025.00
2022-09-21T17:06:55.815Z,102017.00
2022-09-21T17:09:38.496Z,102028.00
2022-09-21T17:12:09.239Z,102020.00
2022-09-21T17:14:40.904Z,102029.00
2022-09-21T17:17:22.944Z,102028.00
2022-09-21T17:19:52.647Z,102035.00
2022-09-21T17:22:20.134Z,102032.00
2022-09-21T17:24:52.358Z,102025.00
2022-09-21T17:27:23.071Z,102023.00
2022-09-21T17:29:50.598Z,102039.00
2022-09-21T17:32:20.883Z,102035.00
2022-09-21T17:35:36.886Z,102038.00
2022-09-21T17:38:03.675Z,102038.00
2022-09-21T17:40:31.054Z,102033.00
2022-09-21T17:43:13.697Z,102039.00
2022-09-21T17:46:08.378Z,102037.00
2022-09-21T17:48:39.137Z,102038.00
2022-09-21T17:51:06.558Z,102040.00
2022-09-21T17:53:41.658Z,102044.00
2022-09-21T17:56:43.466Z,102039.00
2022-09-21T17:59:33.973Z,102042.00
2022-09-21T18:02:02.299Z,102041.00
2022-09-21T18:04:32.814Z,102042.00
2022-09-21T18:06:59.996Z,102048.00
2022-09-21T18:09:27.217Z,102055.00
2022-09-21T18:12:48.547Z,102051.00
2022-09-21T18:15:34.108Z,102056.00
2022-09-21T18:18:19.903Z,102060.00
2022-09-21T18:21:16.989Z,102062.00
2022-09-21T18:24:08.534Z,102055.00
2022-09-21T18:26:35.616Z,102062.00
2022-09-21T18:29:22.530Z,102050.00
2022-09-21T18:32:07.054Z,102058.00
2022-09-21T18:34:51.113Z,102061.00
2022-09-21T18:38:03.425Z,102053.00
2022-09-21T18:41:07.784Z,102071.00
2022-09-21T18:43:36.529Z,102055.00
2022-09-21T18:46:29.162Z,102055.00
2022-09-21T18:49:40.924Z,102060.00
2022-09-21T18:52:43.169Z,102062.00
2022-09-21T18:55:27.042Z,102063.00
2022-09-21T18:57:59.369Z,102066.00
2022-09-21T19:00:35.852Z,102055.00
2022-09-21T19:03:23.313Z,102066.00
2022-09-21T19:06:23.290Z,102073.00
2022-09-21T19:09:19.114Z,102065.00
2022-09-21T19:12:21.763Z,102078.00
2022-09-21T19:15:14.261Z,102072.00
2022-09-21T19:18:20.139Z,102076.00
2022-09-21T19:21:23.938Z,102078.00
2022-09-21T19:24:16.510Z,102079.00
2022-09-21T19:27:26.225Z,102074.00
2022-09-21T19:30:12.647Z,102073.00
2022-09-21T19:32:53.114Z,102069.00
2022-09-21T19:35:30.034Z,102074.00
2022-09-21T19:38:02.959Z,102071.00
2022-09-21T19:40:37.266Z,102084.00
2022-09-21T19:43:41.551Z,102075.00
2022-09-21T19:46:27.080Z,102078.00
2022-09-21T19:49:05.133Z,102078.00
2022-09-21T19:51:45.618Z,102077.00
2022-09-21T19:54:36.600Z,102066.00
2022-09-21T19:57:40.302Z,102071.00
2022-09-21T20:00:13.248Z,102084.00
2022-09-21T20:03:09.553Z,102087.00
2022-09-21T20:06:10.164Z,102083.00
2022-09-21T20:09:05.220Z,102086.00
2022-09-21T20:11:50.646Z,102085.00
2022-09-21T20:14:34.800Z,102088.00
2022-09-21T20:17:04.665Z,102088.00
2022-09-21T20:20:00.914Z,102084.00
2022-09-21T20:22:35.999Z,102089.00
2022-09-21T20:25:15.564Z,102076.00
2022-09-21T20:27:45.999Z,102080.00
2022-09-21T20:30:16.458Z,102089.00
2022-09-21T20:32:50.543Z,102086.00
2022-09-21T20:35:23.829Z,102079.00
2022-09-21T20:37:55.688Z,102084.00
2022-09-21T20:40:28.929Z,102081.00
2022-09-21T20:42:57.335Z,102090.00
2022-09-21T20:45:24.822Z,102094.00
2022-09-21T20:47:53.919Z,102087.00
2022-09-21T20:50:25.383Z,102086.00
2022-09-21T20:52:52.147Z,102084.00
2022-09-21T20:55:20.301Z,102089.00
2022-09-21T20:57:47.101Z,102095.00
2022-09-21T21:00:16.536Z,102080.00
2022-09-21T21:02:43.762Z,102079.00
2022-09-21T21:05:11.210Z,102085.00
2022-09-21T21:07:39.797Z,102089.00
2022-09-21T21:10:07.949Z,102095.00
2022-09-21T21:12:34.682Z,102085.00
2022-09-21T21:15:01.395Z,102088.00
2022-09-21T21:17:28.377Z,102089.00
2022-09-21T21:19:55.082Z,102092.00
2022-09-21T21:22:21.775Z,102095.00
2022-09-21T21:24:48.542Z,102095.00
2022-09-21T21:27:26.057Z,102095.00
2022-09-21T21:29:54.961Z,102089.00
2022-09-21T21:32:26.802Z,102092.00
2022-09-21T21:34:55.177Z,102102.00
2022-09-21T21:37:25.413Z,102096.00
2022-09-21T21:39:56.239Z,102094.00
2022-09-21T21:42:24.966Z,102091.00
2022-09-21T21:44:51.906Z,102088.00
2022-09-21T21:47:38.684Z,102084.00
2022-09-21T21:50:06.257Z,102102.00
2022-09-21T21:52:33.110Z,102090.00
2022-09-21T21:54:59.891Z,102097.00
2022-09-21T21:57:26.660Z,102091.00
2022-09-21T21:59:53.417Z,102080.00
2022-09-21T22:02:20.295Z,102085.00
2022-09-21T22:04:47.151Z,102081.00
2022-09-21T22:07:14.008Z,102082.00
2022-09-21T22:09:40.737Z,102077.00
2022-09-21T22:12:08.289Z,102083.00
2022-09-21T22:14:35.580Z,102078.00
2022-09-21T22:17:02.414Z,102078.00
2022-09-21T22:19:29.387Z,102074.00
2022-09-21T22:21:56.177Z,102069.00
2022-09-21T22:24:23.835Z,102076.00
2022-09-21T22:26:51.025Z,102076.00
2022-09-21T22:29:18.015Z,102067.00
2022-09-21T22:31:48.811Z,102072.00
2022-09-21T22:34:16.483Z,102070.00
2022-09-21T22:36:43.943Z,102070.00
2022-09-21T22:39:11.690Z,102075.00
2022-09-21T22:41:41.522Z,102080.00
2022-09-21T22:44:10.261Z,102072.00
2022-09-21T22:46:38.396Z,102078.00
2022-09-21T22:49:05.916Z,102081.00
2022-09-21T22:51:33.702Z,102087.00
2022-09-21T22:54:01.562Z,102084.00
2022-09-21T22:56:32.049Z,102085.00
2022-09-21T22:59:02.214Z,102076.00
2022-09-21T23:01:36.201Z,102082.00
2022-09-21T23:04:11.807Z,102081.00
2022-09-21T23:06:42.550Z,102080.00
2022-09-21T23:09:20.196Z,102079.00
2022-09-21T23:11:53.422Z,102081.00
2022-09-21T23:14:22.846Z,102080.00
2022-09-21T23:16:50.539Z,102079.00
2022-09-21T23:19:17.711Z,102086.00
2022-09-21T23:21:49.884Z,102082.00
2022-09-21T23:24:18.215Z,102076.00
2022-09-21T23:26:46.139Z,102070.00
2022-09-21T23:29:15.800Z,102081.00
2022-09-21T23:31:45.571Z,102068.00
2022-09-21T23:34:14.156Z,102072.00
2022-09-21T23:36:42.060Z,102065.00
2022-09-21T23:39:12.620Z,102073.00
2022-09-21T23:41:40.355Z,102075.00
2022-09-21T23:44:07.643Z,102063.00
2022-09-21T23:46:37.835Z,102070.00
2022-09-21T23:49:05.672Z,102076.00
2022-09-21T23:51:32.704Z,102072.00
2022-09-21T23:54:00.279Z,102069.00
2022-09-21T23:56:28.510Z,102074.00
2022-09-21T23:58:55.654Z,102063.00
